Bad Langensalza Airport


Codes: EDEB/
Name: Bad Langensalza Airport
City: Bad Langensalza
Country: Germany
Elevation: 650 ft.
Wikipedia:

Photos at Bad Langensalza Airport


   Photos courtesy of SpottingLog. You can add your own sightings and photos by signing up for a free trial today.



No photos found.

Weather at Bad Langensalza Airport


Time (UTC)DescriptionTempratureWindCloud coverageVisibilityPressureHumidity
25-Jun-2024 15:00Clear Sky25°C11 mph, E9%10000m1014hPa61%
25-Jun-2024 18:00Few Clouds23°C7 mph, NE21%10000m1014hPa73%
25-Jun-2024 21:00Overcast Clouds17°C4 mph, NE98%10000m1014hPa84%
26-Jun-2024 00:00Overcast Clouds16°C4 mph, NE93%10000m1014hPa85%
26-Jun-2024 03:00Clear Sky15°C4 mph, NE2%10000m1013hPa91%
26-Jun-2024 06:00Clear Sky18°C7 mph, NE3%10000m1012hPa83%
26-Jun-2024 09:00Clear Sky23°C11 mph, E2%10000m1012hPa74%
26-Jun-2024 12:00Scattered Clouds26°C11 mph, E28%10000m1011hPa64%
26-Jun-2024 15:00Overcast Clouds28°C11 mph, NE87%10000m1009hPa65%
26-Jun-2024 18:00Light Rain25°C7 mph, NE74%10000m1009hPa82%
26-Jun-2024 21:00Light Rain22°C2 mph, NE66%10000m1009hPa83%
27-Jun-2024 00:00Broken Clouds20°C2 mph, E70%10000m1009hPa88%
27-Jun-2024 03:00Overcast Clouds19°C2 mph, SE100%10000m1009hPa90%
27-Jun-2024 06:00Broken Clouds22°C2 mph, SE73%10000m1009hPa82%
27-Jun-2024 09:00Light Rain26°C4 mph, E32%10000m1008hPa69%
27-Jun-2024 12:00Light Rain28°C7 mph, SW34%10000m1008hPa57%
27-Jun-2024 15:00Scattered Clouds28°C9 mph, W42%10000m1008hPa58%
27-Jun-2024 18:00Light Rain25°C7 mph, SW62%10000m1008hPa80%
27-Jun-2024 21:00Light Rain21°C4 mph, W15%10000m1010hPa85%
28-Jun-2024 00:00Few Clouds19°C4 mph, SW11%10000m1011hPa89%
28-Jun-2024 03:00Light Rain18°C7 mph, SW76%10000m1011hPa93%
28-Jun-2024 06:00Broken Clouds21°C11 mph, W57%10000m1013hPa86%
28-Jun-2024 09:00Light Rain22°C13 mph, W48%10000m1014hPa80%
28-Jun-2024 12:00Broken Clouds24°C13 mph, W74%10000m1015hPa58%
28-Jun-2024 15:00Broken Clouds24°C9 mph, W65%10000m1016hPa51%
28-Jun-2024 18:00Scattered Clouds21°C4 mph, N38%10000m1017hPa71%
28-Jun-2024 21:00Clear Sky16°C2 mph, NE5%10000m1018hPa75%
29-Jun-2024 00:00Clear Sky14°C4 mph, E4%10000m1018hPa88%
29-Jun-2024 03:00Clear Sky13°C4 mph, E3%10000m1017hPa90%
29-Jun-2024 06:00Few Clouds17°C4 mph, E24%10000m1016hPa80%
29-Jun-2024 09:00Overcast Clouds22°C7 mph, E88%10000m1014hPa75%
29-Jun-2024 12:00Light Rain27°C7 mph, E94%10000m1011hPa71%
29-Jun-2024 15:00Scattered Clouds31°C7 mph, NE34%10000m1007hPa59%
29-Jun-2024 18:00Light Rain27°C9 mph, NW53%10000m1005hPa79%
29-Jun-2024 21:00Moderate Rain18°C2 mph, SE96%9840m1005hPa91%
30-Jun-2024 00:00Heavy Intensity Rain17°C2 mph, NW98%10000m1004hPa95%
30-Jun-2024 03:00Overcast Clouds18°C9 mph, SW88%10000m1004hPa95%
30-Jun-2024 06:00Broken Clouds19°C18 mph, SW78%10000m1005hPa89%
30-Jun-2024 09:00Overcast Clouds18°C22 mph, SW100%10000m1006hPa91%
30-Jun-2024 12:00Overcast Clouds15°C16 mph, W100%10000m1010hPa84%